sensor_id;sensor_type;location;lat;lon;timestamp;pressure;altitude;pressure_sealevel;temperature;humidity
63535;BME280;55128;50.230;18.944;2023-03-16T00:03:00;98661.38;;;-0.86;71.82
63535;BME280;55128;50.230;18.944;2023-03-16T00:08:01;98669.19;;;-0.95;72.37
63535;BME280;55128;50.230;18.944;2023-03-16T00:13:01;98667.44;;;-1.02;72.15
63535;BME280;55128;50.230;18.944;2023-03-16T00:18:02;98663.97;;;-1.10;73.31
63535;BME280;55128;50.230;18.944;2023-03-16T00:23:02;98664.84;;;-1.16;72.71
63535;BME280;55128;50.230;18.944;2023-03-16T00:28:02;98674.34;;;-1.17;72.94
63535;BME280;55128;50.230;18.944;2023-03-16T00:33:03;98673.50;;;-1.20;72.34
63535;BME280;55128;50.230;18.944;2023-03-16T00:38:04;98670.88;;;-1.26;72.46
63535;BME280;55128;50.230;18.944;2023-03-16T00:43:04;98673.47;;;-1.34;72.70
63535;BME280;55128;50.230;18.944;2023-03-16T00:48:04;98673.47;;;-1.40;73.41
63535;BME280;55128;50.230;18.944;2023-03-16T00:53:05;98672.56;;;-1.39;73.07
63535;BME280;55128;50.230;18.944;2023-03-16T00:58:05;98675.16;;;-1.45;72.72
63535;BME280;55128;50.230;18.944;2023-03-16T01:03:05;98676.03;;;-1.51;72.81
63535;BME280;55128;50.230;18.944;2023-03-16T01:08:07;98676.84;;;-1.66;73.55
63535;BME280;55128;50.230;18.944;2023-03-16T01:13:08;98676.84;;;-1.70;73.38
63535;BME280;55128;50.230;18.944;2023-03-16T01:18:08;98682.03;;;-1.72;73.78
63535;BME280;55128;50.230;18.944;2023-03-16T01:23:08;98684.59;;;-1.75;73.62
63535;BME280;55128;50.230;18.944;2023-03-16T01:28:09;98693.25;;;-1.82;73.88
63535;BME280;55128;50.230;18.944;2023-03-16T01:33:09;98692.34;;;-1.89;73.84
63535;BME280;55128;50.230;18.944;2023-03-16T01:38:09;98690.59;;;-1.90;74.32
63535;BME280;55128;50.230;18.944;2023-03-16T01:43:10;98693.22;;;-1.91;74.26
63535;BME280;55128;50.230;18.944;2023-03-16T01:48:10;98695.75;;;-2.04;74.80
63535;BME280;55128;50.230;18.944;2023-03-16T01:53:11;98698.38;;;-2.02;73.84
63535;BME280;55128;50.230;18.944;2023-03-16T01:58:11;98704.44;;;-2.00;74.12
63535;BME280;55128;50.230;18.944;2023-03-16T02:03:15;98698.28;;;-2.13;74.37
63535;BME280;55128;50.230;18.944;2023-03-16T02:08:17;98705.22;;;-2.13;74.58
63535;BME280;55128;50.230;18.944;2023-03-16T02:13:19;98712.97;;;-2.18;74.68
63535;BME280;55128;50.230;18.944;2023-03-16T02:18:20;98714.69;;;-2.25;73.87
63535;BME280;55128;50.230;18.944;2023-03-16T02:23:24;98713.81;;;-2.24;74.24
63535;BME280;55128;50.230;18.944;2023-03-16T02:28:33;98725.91;;;-2.30;74.24
63535;BME280;55128;50.230;18.944;2023-03-16T02:33:37;98742.38;;;-2.31;74.28
63535;BME280;55128;50.230;18.944;2023-03-16T02:38:38;98747.50;;;-2.41;73.99
63535;BME280;55128;50.230;18.944;2023-03-16T02:43:41;98748.28;;;-2.48;73.57
63535;BME280;55128;50.230;18.944;2023-03-16T02:48:47;98760.41;;;-2.50;74.26
63535;BME280;55128;50.230;18.944;2023-03-16T02:53:48;98770.81;;;-2.50;73.85
63535;BME280;55128;50.230;18.944;2023-03-16T02:58:48;98772.50;;;-2.54;74.04
63535;BME280;55128;50.230;18.944;2023-03-16T03:03:49;98778.56;;;-2.55;74.13
63535;BME280;55128;50.230;18.944;2023-03-16T03:08:50;98781.16;;;-2.56;74.31
63535;BME280;55128;50.230;18.944;2023-03-16T03:13:50;98785.41;;;-2.61;73.89
63535;BME280;55128;50.230;18.944;2023-03-16T03:18:51;98788.00;;;-2.66;74.06
63535;BME280;55128;50.230;18.944;2023-03-16T03:23:51;98796.59;;;-2.71;73.39
63535;BME280;55128;50.230;18.944;2023-03-16T03:28:52;98797.38;;;-2.80;74.12
63535;BME280;55128;50.230;18.944;2023-03-16T03:33:53;98794.84;;;-2.76;74.18
63535;BME280;55128;50.230;18.944;2023-03-16T03:38:53;98810.34;;;-2.80;73.13
63535;BME280;55128;50.230;18.944;2023-03-16T03:43:53;98811.97;;;-2.91;74.12
63535;BME280;55128;50.230;18.944;2023-03-16T03:48:54;98819.72;;;-2.93;72.98
63535;BME280;55128;50.230;18.944;2023-03-16T03:53:54;98829.25;;;-2.95;73.53
63535;BME280;55128;50.230;18.944;2023-03-16T03:58:55;98821.44;;;-2.97;74.16
63535;BME280;55128;50.230;18.944;2023-03-16T04:03:55;98832.66;;;-2.99;74.08
63535;BME280;55128;50.230;18.944;2023-03-16T04:08:56;98831.75;;;-3.03;74.11
63535;BME280;55128;50.230;18.944;2023-03-16T04:13:56;98837.75;;;-3.08;74.08
63535;BME280;55128;50.230;18.944;2023-03-16T04:18:56;98838.63;;;-3.06;74.11
63535;BME280;55128;50.230;18.944;2023-03-16T04:23:57;98836.84;;;-3.12;74.50
63535;BME280;55128;50.230;18.944;2023-03-16T04:28:57;98846.41;;;-3.06;74.55
63535;BME280;55128;50.230;18.944;2023-03-16T04:33:58;98840.31;;;-3.11;75.30
63535;BME280;55128;50.230;18.944;2023-03-16T04:38:58;98848.13;;;-3.08;75.14
63535;BME280;55128;50.230;18.944;2023-03-16T04:43:59;98847.22;;;-3.12;75.10
63535;BME280;55128;50.230;18.944;2023-03-16T04:48:59;98851.50;;;-3.17;75.27
63535;BME280;55128;50.230;18.944;2023-03-16T04:53:59;98868.66;;;-3.27;74.47
63535;BME280;55128;50.230;18.944;2023-03-16T04:59:00;98864.34;;;-3.28;75.27
63535;BME280;55128;50.230;18.944;2023-03-16T05:04:00;98864.38;;;-3.26;74.18
63535;BME280;55128;50.230;18.944;2023-03-16T05:09:01;98879.16;;;-3.18;73.84
63535;BME280;55128;50.230;18.944;2023-03-16T05:14:04;98878.31;;;-3.18;74.29
63535;BME280;55128;50.230;18.944;2023-03-16T05:19:05;98881.03;;;-3.09;73.94
63535;BME280;55128;50.230;18.944;2023-03-16T05:24:06;98885.06;;;-2.58;74.10
63535;BME280;55128;50.230;18.944;2023-03-16T05:29:07;98890.66;;;-2.21;73.08
63535;BME280;55128;50.230;18.944;2023-03-16T05:34:07;98898.94;;;-1.61;72.36
63535;BME280;55128;50.230;18.944;2023-03-16T05:39:07;98889.84;;;-0.80;70.38
63535;BME280;55128;50.230;18.944;2023-03-16T05:44:08;98902.19;;;0.64;68.90
63535;BME280;55128;50.230;18.944;2023-03-16T05:49:08;98901.78;;;1.69;66.42
63535;BME280;55128;50.230;18.944;2023-03-16T05:54:09;98905.44;;;2.67;65.63
63535;BME280;55128;50.230;18.944;2023-03-16T05:59:09;98914.31;;;3.99;60.96
63535;BME280;55128;50.230;18.944;2023-03-16T06:04:09;98926.69;;;5.00;57.86
63535;BME280;55128;50.230;18.944;2023-03-16T06:09:10;98939.63;;;5.98;53.84
63535;BME280;55128;50.230;18.944;2023-03-16T06:14:10;98942.69;;;7.54;53.20
63535;BME280;55128;50.230;18.944;2023-03-16T06:19:11;98952.63;;;8.07;50.63
63535;BME280;55128;50.230;18.944;2023-03-16T06:24:11;98964.00;;;8.67;48.17
63535;BME280;55128;50.230;18.944;2023-03-16T06:29:11;98964.66;;;9.26;45.73
63535;BME280;55128;50.230;18.944;2023-03-16T06:34:12;98968.81;;;10.05;46.39
63535;BME280;55128;50.230;18.944;2023-03-16T06:39:12;98965.34;;;10.93;43.58
63535;BME280;55128;50.230;18.944;2023-03-16T06:44:13;98974.53;;;11.87;40.64
63535;BME280;55128;50.230;18.944;2023-03-16T06:49:13;98972.66;;;13.19;37.76
63535;BME280;55128;50.230;18.944;2023-03-16T06:54:14;98974.28;;;14.39;37.48
63535;BME280;55128;50.230;18.944;2023-03-16T06:59:14;98985.31;;;14.96;34.97
63535;BME280;55128;50.230;18.944;2023-03-16T07:04:15;98986.31;;;13.30;36.81
63535;BME280;55128;50.230;18.944;2023-03-16T07:09:15;98994.25;;;10.79;40.62
63535;BME280;55128;50.230;18.944;2023-03-16T07:14:16;98995.53;;;10.23;42.15
63535;BME280;55128;50.230;18.944;2023-03-16T07:19:19;99007.16;;;8.69;45.59
63535;BME280;55128;50.230;18.944;2023-03-16T07:24:19;99009.72;;;7.83;48.73
63535;BME280;55128;50.230;18.944;2023-03-16T07:29:20;99002.44;;;7.27;49.87
63535;BME280;55128;50.230;18.944;2023-03-16T07:34:21;99008.22;;;9.67;45.86
63535;BME280;55128;50.230;18.944;2023-03-16T07:39:21;99008.66;;;9.55;46.47
63535;BME280;55128;50.230;18.944;2023-03-16T07:44:21;99002.03;;;12.82;40.92
63535;BME280;55128;50.230;18.944;2023-03-16T07:49:22;99004.22;;;11.57;40.51
63535;BME280;55128;50.230;18.944;2023-03-16T07:54:22;99008.38;;;12.04;38.17
63535;BME280;55128;50.230;18.944;2023-03-16T07:59:23;99013.78;;;10.32;42.39
63535;BME280;55128;50.230;18.944;2023-03-16T08:04:23;99013.47;;;11.90;39.70
63535;BME280;55128;50.230;18.944;2023-03-16T08:09:25;99017.44;;;13.12;37.44
63535;BME280;55128;50.230;18.944;2023-03-16T08:14:25;99023.16;;;12.86;38.29
63535;BME280;55128;50.230;18.944;2023-03-16T08:19:26;99029.59;;;12.81;37.59
63535;BME280;55128;50.230;18.944;2023-03-16T08:24:27;99035.09;;;12.21;37.59
63535;BME280;55128;50.230;18.944;2023-03-16T08:29:28;99036.44;;;15.22;33.13
63535;BME280;55128;50.230;18.944;2023-03-16T08:34:29;99038.72;;;14.66;33.53
63535;BME280;55128;50.230;18.944;2023-03-16T08:39:29;99039.34;;;17.20;29.95
63535;BME280;55128;50.230;18.944;2023-03-16T08:44:29;99043.25;;;18.96;27.42
63535;BME280;55128;50.230;18.944;2023-03-16T08:49:30;99042.97;;;20.41;26.61
63535;BME280;55128;50.230;18.944;2023-03-16T08:54:30;99051.00;;;21.52;23.55
63535;BME280;55128;50.230;18.944;2023-03-16T08:59:31;99055.41;;;22.37;22.32
63535;BME280;55128;50.230;18.944;2023-03-16T09:04:32;99054.69;;;22.66;21.88
63535;BME280;55128;50.230;18.944;2023-03-16T09:09:32;99063.72;;;17.83;27.87
63535;BME280;55128;50.230;18.944;2023-03-16T09:14:33;99070.16;;;22.02;22.10
63535;BME280;55128;50.230;18.944;2023-03-16T09:19:36;99070.81;;;23.18;20.47
63535;BME280;55128;50.230;18.944;2023-03-16T09:24:36;99064.19;;;16.82;27.38
63535;BME280;55128;50.230;18.944;2023-03-16T09:29:37;99065.16;;;20.22;23.92
63535;BME280;55128;50.230;18.944;2023-03-16T09:34:38;99060.25;;;18.08;24.24
63535;BME280;55128;50.230;18.944;2023-03-16T09:39:38;99070.25;;;15.23;27.59
63535;BME280;55128;50.230;18.944;2023-03-16T09:45:05;99060.16;;;19.22;25.65
63535;BME280;55128;50.230;18.944;2023-03-16T09:50:15;99067.16;;;21.63;22.23
63535;BME280;55128;50.230;18.944;2023-03-16T09:55:36;99060.34;;;18.45;24.08
63535;BME280;55128;50.230;18.944;2023-03-16T10:00:49;99066.28;;;15.14;28.52
63535;BME280;55128;50.230;18.944;2023-03-16T10:05:58;99067.25;;;15.44;28.48
63535;BME280;55128;50.230;18.944;2023-03-16T10:11:21;99074.03;;;12.62;31.93
63535;BME280;55128;50.230;18.944;2023-03-16T10:16:38;99077.28;;;11.48;33.21
63535;BME280;55128;50.230;18.944;2023-03-16T10:21:41;99079.88;;;12.70;31.65
63535;BME280;55128;50.230;18.944;2023-03-16T10:26:43;99082.13;;;12.21;32.70
63535;BME280;55128;50.230;18.944;2023-03-16T10:31:48;99080.94;;;10.58;35.44
63535;BME280;55128;50.230;18.944;2023-03-16T10:36:49;99077.66;;;10.97;35.73
63535;BME280;55128;50.230;18.944;2023-03-16T10:41:56;99082.72;;;10.10;36.32
63535;BME280;55128;50.230;18.944;2023-03-16T10:47:03;99078.88;;;9.93;37.83
63535;BME280;55128;50.230;18.944;2023-03-16T10:52:23;99088.25;;;9.79;36.32
63535;BME280;55128;50.230;18.944;2023-03-16T10:57:35;99083.59;;;9.60;37.73
63535;BME280;55128;50.230;18.944;2023-03-16T11:02:35;99078.03;;;8.88;37.28
63535;BME280;55128;50.230;18.944;2023-03-16T11:07:36;99077.19;;;8.57;38.24
63535;BME280;55128;50.230;18.944;2023-03-16T11:12:36;99074.34;;;8.65;37.51
63535;BME280;55128;50.230;18.944;2023-03-16T11:17:40;99068.03;;;10.00;36.78
63535;BME280;55128;50.230;18.944;2023-03-16T11:22:44;99072.22;;;9.57;35.91
63535;BME280;55128;50.230;18.944;2023-03-16T11:28:04;99066.59;;;9.66;35.54
63535;BME280;55128;50.230;18.944;2023-03-16T11:33:14;99051.34;;;10.21;34.36
63535;BME280;55128;50.230;18.944;2023-03-16T11:38:23;99057.00;;;10.59;34.63
63535;BME280;55128;50.230;18.944;2023-03-16T11:49:17;99049.47;;;9.24;37.07
63535;BME280;55128;50.230;18.944;2023-03-16T11:54:37;99050.09;;;9.58;36.28
63535;BME280;55128;50.230;18.944;2023-03-16T12:05:36;99057.59;;;9.20;37.18
63535;BME280;55128;50.230;18.944;2023-03-16T12:10:44;99057.44;;;8.98;36.05
63535;BME280;55128;50.230;18.944;2023-03-16T12:15:54;99050.25;;;8.45;35.70
63535;BME280;55128;50.230;18.944;2023-03-16T12:26:45;99058.66;;;8.28;38.43
63535;BME280;55128;50.230;18.944;2023-03-16T12:32:09;99046.31;;;8.86;37.29
63535;BME280;55128;50.230;18.944;2023-03-16T12:42:51;99044.28;;;9.21;36.62
63535;BME280;55128;50.230;18.944;2023-03-16T12:48:21;99037.00;;;9.53;35.08
63535;BME280;55128;50.230;18.944;2023-03-16T12:53:43;99043.97;;;9.04;36.40
63535;BME280;55128;50.230;18.944;2023-03-16T12:58:49;99048.50;;;9.53;35.05
63535;BME280;55128;50.230;18.944;2023-03-16T13:03:58;99041.34;;;9.56;33.89
63535;BME280;55128;50.230;18.944;2023-03-16T13:09:00;99047.91;;;9.44;34.45
63535;BME280;55128;50.230;18.944;2023-03-16T13:14:06;99043.41;;;9.21;34.20
63535;BME280;55128;50.230;18.944;2023-03-16T13:19:28;99043.06;;;9.82;33.31
63535;BME280;55128;50.230;18.944;2023-03-16T13:24:38;99047.28;;;9.62;33.63
63535;BME280;55128;50.230;18.944;2023-03-16T13:29:39;99045.41;;;9.91;32.95
63535;BME280;55128;50.230;18.944;2023-03-16T13:34:51;99050.75;;;9.64;30.92
63535;BME280;55128;50.230;18.944;2023-03-16T13:40:00;99047.06;;;9.93;31.54
63535;BME280;55128;50.230;18.944;2023-03-16T13:45:12;99040.56;;;10.02;31.48
63535;BME280;55128;50.230;18.944;2023-03-16T13:50:15;99036.88;;;10.54;31.40
63535;BME280;55128;50.230;18.944;2023-03-16T13:55:20;99037.19;;;10.21;30.82
63535;BME280;55128;50.230;18.944;2023-03-16T14:00:29;99042.44;;;9.50;31.78
63535;BME280;55128;50.230;18.944;2023-03-16T14:05:33;99037.63;;;9.61;31.60
63535;BME280;55128;50.230;18.944;2023-03-16T14:10:35;99045.38;;;9.14;32.47
63535;BME280;55128;50.230;18.944;2023-03-16T14:15:37;99043.28;;;9.25;32.36
63535;BME280;55128;50.230;18.944;2023-03-16T14:20:38;99035.81;;;9.37;32.00
63535;BME280;55128;50.230;18.944;2023-03-16T14:25:39;99036.63;;;9.12;31.97
63535;BME280;55128;50.230;18.944;2023-03-16T14:30:50;99036.38;;;9.46;31.83
63535;BME280;55128;50.230;18.944;2023-03-16T14:35:54;99034.19;;;9.83;32.35
63535;BME280;55128;50.230;18.944;2023-03-16T14:40:56;99035.78;;;9.87;31.93
63535;BME280;55128;50.230;18.944;2023-03-16T14:45:58;99035.88;;;9.35;32.22
63535;BME280;55128;50.230;18.944;2023-03-16T14:51:00;99045.88;;;9.52;32.20
63535;BME280;55128;50.230;18.944;2023-03-16T14:56:01;99041.81;;;9.42;32.31
63535;BME280;55128;50.230;18.944;2023-03-16T15:01:02;99043.66;;;9.13;32.37
63535;BME280;55128;50.230;18.944;2023-03-16T15:06:04;99059.09;;;9.00;33.12
63535;BME280;55128;50.230;18.944;2023-03-16T15:11:05;99052.94;;;9.00;33.14
63535;BME280;55128;50.230;18.944;2023-03-16T15:16:10;99057.28;;;8.74;33.52
63535;BME280;55128;50.230;18.944;2023-03-16T15:21:18;99056.56;;;8.39;34.95
63535;BME280;55128;50.230;18.944;2023-03-16T15:26:24;99052.78;;;8.48;34.53
63535;BME280;55128;50.230;18.944;2023-03-16T15:31:26;99052.06;;;8.43;34.84
63535;BME280;55128;50.230;18.944;2023-03-16T15:36:26;99049.22;;;8.50;34.13
63535;BME280;55128;50.230;18.944;2023-03-16T15:41:27;99050.38;;;8.38;33.83
63535;BME280;55128;50.230;18.944;2023-03-16T15:46:27;99041.50;;;8.11;33.59
63535;BME280;55128;50.230;18.944;2023-03-16T15:51:29;99048.50;;;8.12;34.41
63535;BME280;55128;50.230;18.944;2023-03-16T15:56:36;99055.00;;;8.02;33.84
63535;BME280;55128;50.230;18.944;2023-03-16T16:01:43;99050.47;;;7.74;34.41
63535;BME280;55128;50.230;18.944;2023-03-16T16:06:46;99054.56;;;7.53;34.35
63535;BME280;55128;50.230;18.944;2023-03-16T16:11:48;99058.22;;;7.49;35.06
63535;BME280;55128;50.230;18.944;2023-03-16T16:16:49;99071.47;;;7.13;36.18
63535;BME280;55128;50.230;18.944;2023-03-16T16:21:50;99071.47;;;6.76;36.12
63535;BME280;55128;50.230;18.944;2023-03-16T16:26:51;99076.03;;;6.68;35.99
63535;BME280;55128;50.230;18.944;2023-03-16T16:31:52;99071.16;;;6.51;36.08
63535;BME280;55128;50.230;18.944;2023-03-16T16:36:53;99081.16;;;6.35;36.52
63535;BME280;55128;50.230;18.944;2023-03-16T16:41:54;99083.34;;;6.14;37.07
63535;BME280;55128;50.230;18.944;2023-03-16T16:46:55;99082.94;;;5.89;38.44
63535;BME280;55128;50.230;18.944;2023-03-16T16:51:57;99086.03;;;5.64;38.28
63535;BME280;55128;50.230;18.944;2023-03-16T16:56:59;99085.75;;;5.32;39.29
63535;BME280;55128;50.230;18.944;2023-03-16T17:02:00;99087.91;;;5.08;40.00
63535;BME280;55128;50.230;18.944;2023-03-16T17:07:04;99081.69;;;4.55;42.44
63535;BME280;55128;50.230;18.944;2023-03-16T17:12:14;99095.06;;;4.38;42.60
63535;BME280;55128;50.230;18.944;2023-03-16T17:17:17;99108.63;;;4.05;44.81
63535;BME280;55128;50.230;18.944;2023-03-16T17:27:28;99101.91;;;3.77;47.41
63535;BME280;55128;50.230;18.944;2023-03-16T17:32:29;99102.16;;;3.54;46.87
63535;BME280;55128;50.230;18.944;2023-03-16T17:37:30;99108.78;;;2.94;49.16
63535;BME280;55128;50.230;18.944;2023-03-16T17:42:30;99107.03;;;2.96;48.54
63535;BME280;55128;50.230;18.944;2023-03-16T17:47:30;99101.03;;;2.77;50.71
63535;BME280;55128;50.230;18.944;2023-03-16T17:52:35;99098.47;;;2.68;51.40
63535;BME280;55128;50.230;18.944;2023-03-16T17:57:37;99106.44;;;2.56;49.05
63535;BME280;55128;50.230;18.944;2023-03-16T18:03:01;99110.91;;;2.29;51.23
63535;BME280;55128;50.230;18.944;2023-03-16T18:13:15;99123.28;;;1.91;51.55
63535;BME280;55128;50.230;18.944;2023-03-16T18:18:22;99120.75;;;1.73;52.74
63535;BME280;55128;50.230;18.944;2023-03-16T18:23:29;99114.66;;;1.59;52.82
63535;BME280;55128;50.230;18.944;2023-03-16T18:28:30;99119.94;;;1.37;53.43
63535;BME280;55128;50.230;18.944;2023-03-16T18:33:34;99135.63;;;1.28;52.54
63535;BME280;55128;50.230;18.944;2023-03-16T18:38:39;99142.59;;;1.13;52.25
63535;BME280;55128;50.230;18.944;2023-03-16T18:43:42;99144.34;;;1.05;54.30
63535;BME280;55128;50.230;18.944;2023-03-16T18:48:42;99146.91;;;0.97;55.39
63535;BME280;55128;50.230;18.944;2023-03-16T18:53:43;99146.91;;;0.85;53.69
63535;BME280;55128;50.230;18.944;2023-03-16T18:58:43;99149.50;;;0.81;53.76
63535;BME280;55128;50.230;18.944;2023-03-16T19:03:44;99149.47;;;0.64;55.02
63535;BME280;55128;50.230;18.944;2023-03-16T19:08:45;99149.47;;;0.59;54.99
63535;BME280;55128;50.230;18.944;2023-03-16T19:13:45;99145.09;;;0.50;55.66
63535;BME280;55128;50.230;18.944;2023-03-16T19:18:46;99154.66;;;0.44;55.43
63535;BME280;55128;50.230;18.944;2023-03-16T19:23:52;99156.34;;;0.35;55.49
63535;BME280;55128;50.230;18.944;2023-03-16T19:28:55;99161.56;;;0.31;55.56
63535;BME280;55128;50.230;18.944;2023-03-16T19:33:56;99168.53;;;0.30;55.57
63535;BME280;55128;50.230;18.944;2023-03-16T19:38:57;99159.75;;;0.10;56.81
63535;BME280;55128;50.230;18.944;2023-03-16T19:44:14;99171.03;;;0.04;56.16
63535;BME280;55128;50.230;18.944;2023-03-16T19:49:26;99170.13;;;0.01;56.99
63535;BME280;55128;50.230;18.944;2023-03-16T19:54:29;99177.94;;;-0.01;57.44
63535;BME280;55128;50.230;18.944;2023-03-16T19:59:33;99164.00;;;-0.11;58.90
63535;BME280;55128;50.230;18.944;2023-03-16T20:04:34;99170.91;;;-0.14;58.72
63535;BME280;55128;50.230;18.944;2023-03-16T20:09:34;99177.78;;;-0.32;60.26
63535;BME280;55128;50.230;18.944;2023-03-16T20:14:35;99180.41;;;-0.27;59.69
63535;BME280;55128;50.230;18.944;2023-03-16T20:19:35;99173.38;;;-0.41;59.99
63535;BME280;55128;50.230;18.944;2023-03-16T20:24:35;99180.22;;;-0.52;60.00
63535;BME280;55128;50.230;18.944;2023-03-16T20:29:36;99177.69;;;-0.44;59.74
63535;BME280;55128;50.230;18.944;2023-03-16T20:34:36;99173.28;;;-0.50;59.73
63535;BME280;55128;50.230;18.944;2023-03-16T20:39:36;99170.56;;;-0.62;60.51
63535;BME280;55128;50.230;18.944;2023-03-16T20:44:37;99174.84;;;-0.72;61.75
63535;BME280;55128;50.230;18.944;2023-03-16T20:49:38;99182.75;;;-0.61;61.88
63535;BME280;55128;50.230;18.944;2023-03-16T20:54:38;99176.63;;;-0.66;60.50
63535;BME280;55128;50.230;18.944;2023-03-16T20:59:38;99177.47;;;-0.70;62.28
63535;BME280;55128;50.230;18.944;2023-03-16T21:04:39;99179.13;;;-0.82;62.23
63535;BME280;55128;50.230;18.944;2023-03-16T21:09:41;99175.56;;;-0.88;62.16
63535;BME280;55128;50.230;18.944;2023-03-16T21:14:42;99169.44;;;-0.95;62.48
63535;BME280;55128;50.230;18.944;2023-03-16T21:19:42;99170.31;;;-0.94;62.78
63535;BME280;55128;50.230;18.944;2023-03-16T21:24:42;99171.22;;;-0.91;62.42
63535;BME280;55128;50.230;18.944;2023-03-16T21:29:43;99173.75;;;-0.99;63.09
63535;BME280;55128;50.230;18.944;2023-03-16T21:34:43;99173.75;;;-0.99;64.38
63535;BME280;55128;50.230;18.944;2023-03-16T21:39:44;99181.47;;;-1.09;63.50
63535;BME280;55128;50.230;18.944;2023-03-16T21:44:46;99191.75;;;-1.23;64.65
63535;BME280;55128;50.230;18.944;2023-03-16T21:49:47;99186.53;;;-1.25;64.16
63535;BME280;55128;50.230;18.944;2023-03-16T21:54:50;99185.66;;;-1.25;65.06
63535;BME280;55128;50.230;18.944;2023-03-16T21:59:50;99189.03;;;-1.34;65.47
63535;BME280;55128;50.230;18.944;2023-03-16T22:04:51;99177.72;;;-1.36;64.71
63535;BME280;55128;50.230;18.944;2023-03-16T22:09:52;99176.75;;;-1.46;65.15
63535;BME280;55128;50.230;18.944;2023-03-16T22:14:52;99174.19;;;-1.41;65.25
63535;BME280;55128;50.230;18.944;2023-03-16T22:19:52;99176.78;;;-1.43;65.68
63535;BME280;55128;50.230;18.944;2023-03-16T22:24:53;99172.47;;;-1.39;65.57
63535;BME280;55128;50.230;18.944;2023-03-16T22:29:53;99161.09;;;-1.47;65.75
63535;BME280;55128;50.230;18.944;2023-03-16T22:34:55;99168.91;;;-1.47;65.93
63535;BME280;55128;50.230;18.944;2023-03-16T22:39:56;99154.97;;;-1.52;66.33
63535;BME280;55128;50.230;18.944;2023-03-16T22:44:57;99151.56;;;-1.47;65.46
63535;BME280;55128;50.230;18.944;2023-03-16T22:49:58;99146.22;;;-1.61;66.45
63535;BME280;55128;50.230;18.944;2023-03-16T22:55:00;99132.16;;;-1.75;68.33
63535;BME280;55128;50.230;18.944;2023-03-16T23:00:02;99135.66;;;-1.73;67.55
63535;BME280;55128;50.230;18.944;2023-03-16T23:05:26;99125.34;;;-1.67;67.49
63535;BME280;55128;50.230;18.944;2023-03-16T23:10:27;99132.22;;;-1.72;67.57
63535;BME280;55128;50.230;18.944;2023-03-16T23:15:29;99137.38;;;-1.73;67.93
63535;BME280;55128;50.230;18.944;2023-03-16T23:20:30;99137.34;;;-1.77;67.45
63535;BME280;55128;50.230;18.944;2023-03-16T23:25:31;99143.38;;;-1.81;67.39
63535;BME280;55128;50.230;18.944;2023-03-16T23:30:32;99145.06;;;-1.84;67.50
63535;BME280;55128;50.230;18.944;2023-03-16T23:35:33;99149.13;;;-2.05;68.46
63535;BME280;55128;50.230;18.944;2023-03-16T23:40:35;99151.72;;;-2.05;69.70
63535;BME280;55128;50.230;18.944;2023-03-16T23:45:40;99162.16;;;-2.06;68.83
63535;BME280;55128;50.230;18.944;2023-03-16T23:50:42;99155.19;;;-2.07;68.17
63535;BME280;55128;50.230;18.944;2023-03-16T23:55:43;99154.47;;;-1.97;68.10
